Time;durP1;ratioP1;P1;durP2;ratioP2;P2;SDS_P1;SDS_P2;PMS_P1;PMS_P2;Temp;Humidity;BMP_temperature;BMP_pressure;BME280_temperature;BME280_humidity;BME280_pressure;Samples;Min_cycle;Max_cycle;Signal;HPM_P1;HPM_P2
2021/12/24 00:01:11;;;;;;;200.90;86.20;;;;;;;;;;5037100;28;20102;-64
2021/12/24 00:03:37;;;;;;;214.70;92.85;;;;;;;;;;5036939;28;20022;-64
2021/12/24 00:06:04;;;;;;;218.73;94.88;;;;;;;;;;5037250;28;20025;-63
2021/12/24 00:08:31;;;;;;;198.07;91.28;;;;;;;;;;5036600;28;20014;-63
2021/12/24 00:10:59;;;;;;;244.77;111.05;;;;;;;;;;5036450;28;20036;-64
2021/12/24 00:13:27;;;;;;;245.00;106.50;;;;;;;;;;5037959;28;20406;-64
2021/12/24 00:16:05;;;;;;;233.85;101.13;;;;;;;;;;5036470;28;20063;-63
2021/12/24 00:18:53;;;;;;;231.38;103.28;;;;;;;;;;5037087;28;20025;-63
2021/12/24 00:37:25;;;;;;;214.60;91.43;;;;;;;;;;5036305;28;20032;-62
2021/12/24 00:40:34;;;;;;;228.18;91.65;;;;;;;;;;5036366;28;20030;-64
2021/12/24 00:42:44;;;;;;;200.95;84.40;;;;;;;;;;5032927;28;20057;-65
2021/12/24 00:45:11;;;;;;;165.48;72.90;;;;;;;;;;5036259;28;20018;-63
2021/12/24 00:47:38;;;;;;;174.55;76.93;;;;;;;;;;5036207;28;20483;-64
2021/12/24 00:50:08;;;;;;;143.60;64.53;;;;;;;;;;5035997;28;20036;-63
2021/12/24 00:55:13;;;;;;;149.60;61.50;;;;;;;;;;5036408;28;20116;-63
2021/12/24 00:57:41;;;;;;;144.68;62.35;;;;;;;;;;5035719;28;20026;-63
2021/12/24 01:00:18;;;;;;;146.07;60.28;;;;;;;;;;5035927;28;20484;-63
2021/12/24 01:02:44;;;;;;;138.70;60.70;;;;;;;;;;5036255;28;20040;-63
2021/12/24 01:05:11;;;;;;;137.80;57.47;;;;;;;;;;5036497;28;20579;-64
2021/12/24 01:07:38;;;;;;;154.25;66.20;;;;;;;;;;5036847;28;20353;-63
2021/12/24 01:10:05;;;;;;;148.18;66.03;;;;;;;;;;5036234;28;20384;-63
2021/12/24 01:12:31;;;;;;;179.35;73.32;;;;;;;;;;5036209;28;20468;-63
2021/12/24 01:14:58;;;;;;;163.57;72.35;;;;;;;;;;5036164;28;20021;-63
2021/12/24 01:20:02;;;;;;;178.68;72.82;;;;;;;;;;5036110;28;20033;-62
2021/12/24 01:23:11;;;;;;;175.50;73.57;;;;;;;;;;5035126;28;20045;-63
2021/12/24 01:25:30;;;;;;;145.35;63.45;;;;;;;;;;5034851;28;20069;-63
2021/12/24 01:28:30;;;;;;;146.82;62.40;;;;;;;;;;5035965;28;20043;-64
2021/12/24 01:39:15;;;;;;;159.75;69.53;;;;;;;;;;5035061;28;20155;-64
2021/12/24 01:44:27;;;;;;;179.85;77.13;;;;;;;;;;5035551;28;20060;-64
2021/12/24 01:47:01;;;;;;;253.63;101.18;;;;;;;;;;5035063;28;20104;-63
2021/12/24 01:49:27;;;;;;;206.45;87.72;;;;;;;;;;5035065;28;20443;-64
2021/12/24 01:51:54;;;;;;;174.13;73.75;;;;;;;;;;5035135;28;20460;-62
2021/12/24 01:54:21;;;;;;;256.27;109.47;;;;;;;;;;5035184;28;20134;-64
2021/12/24 01:56:47;;;;;;;270.45;116.93;;;;;;;;;;5035218;28;20461;-64
2021/12/24 01:59:13;;;;;;;264.73;111.32;;;;;;;;;;5034909;28;20025;-65
2021/12/24 02:01:39;;;;;;;257.95;109.63;;;;;;;;;;5035102;28;20021;-63
2021/12/24 02:04:06;;;;;;;273.58;115.82;;;;;;;;;;5035072;28;20021;-63
2021/12/24 02:06:32;;;;;;;270.00;107.18;;;;;;;;;;5034516;28;20071;-63
2021/12/24 02:08:59;;;;;;;238.27;101.47;;;;;;;;;;5034749;28;20071;-62
2021/12/24 02:11:25;;;;;;;253.77;102.88;;;;;;;;;;5033979;28;20029;-61
2021/12/24 02:13:52;;;;;;;237.23;97.78;;;;;;;;;;5034781;28;20056;-63
2021/12/24 02:29:53;;;;;;;240.27;91.68;;;;;;;;;;5034565;28;20553;-63
2021/12/24 02:32:20;;;;;;;224.27;93.78;;;;;;;;;;5034571;28;20033;-63
2021/12/24 02:34:46;;;;;;;230.98;93.90;;;;;;;;;;5034168;28;20476;-64
2021/12/24 02:37:13;;;;;;;216.35;91.05;;;;;;;;;;5034140;28;20040;-63
2021/12/24 02:39:39;;;;;;;214.65;92.82;;;;;;;;;;5034365;28;20514;-63
2021/12/24 02:42:12;;;;;;;227.13;91.97;;;;;;;;;;5033321;28;20052;-62
2021/12/24 02:44:38;;;;;;;214.25;87.50;;;;;;;;;;5034094;28;20076;-62
2021/12/24 02:55:13;;;;;;;210.25;81.35;;;;;;;;;;5033926;28;20036;-63
2021/12/24 02:57:40;;;;;;;202.85;79.85;;;;;;;;;;5033599;28;20502;-61
2021/12/24 03:00:19;;;;;;;170.45;74.40;;;;;;;;;;5033779;28;20108;-63
2021/12/24 03:02:45;;;;;;;161.07;68.53;;;;;;;;;;5033686;28;20032;-63
2021/12/24 03:05:13;;;;;;;161.07;66.95;;;;;;;;;;5033672;28;20025;-63
2021/12/24 03:07:39;;;;;;;168.60;69.45;;;;;;;;;;5033925;28;20108;-63
2021/12/24 03:10:06;;;;;;;182.68;76.05;;;;;;;;;;5033292;28;20474;-63
2021/12/24 03:12:33;;;;;;;213.32;87.20;;;;;;;;;;5033557;28;20418;-60
2021/12/24 03:14:59;;;;;;;256.83;102.45;;;;;;;;;;5034201;28;20026;-60
2021/12/24 03:17:26;;;;;;;215.57;88.35;;;;;;;;;;5033249;28;20472;-61
2021/12/24 03:19:56;;;;;;;215.32;89.53;;;;;;;;;;5033528;28;20071;-61
2021/12/24 03:24:58;;;;;;;200.98;87.40;;;;;;;;;;5032233;28;20053;-61
2021/12/24 03:27:24;;;;;;;219.07;88.90;;;;;;;;;;5033372;28;20032;-62
2021/12/24 03:29:51;;;;;;;211.07;87.22;;;;;;;;;;5033596;28;20040;-62
2021/12/24 03:32:17;;;;;;;206.23;87.35;;;;;;;;;;5033290;28;20029;-63
2021/12/24 03:34:43;;;;;;;189.18;77.80;;;;;;;;;;5033571;28;20076;-63
2021/12/24 03:37:10;;;;;;;154.35;65.35;;;;;;;;;;5033346;28;20030;-62
2021/12/24 03:39:36;;;;;;;184.73;78.43;;;;;;;;;;5033767;28;20100;-61
2021/12/24 03:42:04;;;;;;;164.88;69.57;;;;;;;;;;5033204;28;20079;-62
2021/12/24 03:44:35;;;;;;;143.70;59.30;;;;;;;;;;5033225;28;20084;-62
2021/12/24 03:47:22;;;;;;;;;;;;;;;;;;5033645;28;20108;-63
2021/12/24 03:52:33;;;;;;;173.30;71.85;;;;;;;;;;5033103;28;20033;-62
2021/12/24 03:54:59;;;;;;;165.05;67.55;;;;;;;;;;5033223;28;20029;-61
2021/12/24 03:57:33;;;;;;;168.95;68.60;;;;;;;;;;5033076;28;20021;-61
2021/12/24 04:00:09;;;;;;;166.88;66.35;;;;;;;;;;5032748;28;20025;-62
2021/12/24 04:02:35;;;;;;;164.10;70.10;;;;;;;;;;5033599;28;20033;-62
2021/12/24 04:05:01;;;;;;;167.18;68.82;;;;;;;;;;5032719;28;20035;-62
2021/12/24 04:07:28;;;;;;;156.68;66.28;;;;;;;;;;5033037;28;20026;-61
2021/12/24 04:10:03;;;;;;;158.27;67.82;;;;;;;;;;5033248;28;20108;-61
2021/12/24 04:12:29;;;;;;;156.40;68.25;;;;;;;;;;5032930;28;20124;-61
2021/12/24 04:14:55;;;;;;;152.60;64.70;;;;;;;;;;5033232;28;20464;-63
2021/12/24 04:17:22;;;;;;;155.02;63.00;;;;;;;;;;5032663;28;20468;-62
2021/12/24 04:25:18;;;;;;;169.05;71.35;;;;;;;;;;5032821;28;20064;-62
2021/12/24 04:27:45;;;;;;;160.57;66.28;;;;;;;;;;5032686;28;20468;-62
2021/12/24 04:30:15;;;;;;;165.35;66.40;;;;;;;;;;5032726;28;20464;-62
2021/12/24 04:35:37;;;;;;;158.95;65.20;;;;;;;;;;5034061;28;20373;-61
2021/12/24 04:51:44;;;;;;;156.63;62.30;;;;;;;;;;5036277;28;20081;-62
2021/12/24 05:02:23;;;;;;;155.23;64.13;;;;;;;;;;5035799;28;20036;-62
2021/12/24 05:04:51;;;;;;;152.70;64.63;;;;;;;;;;5036327;28;20026;-62
2021/12/24 05:07:43;;;;;;;163.82;69.45;;;;;;;;;;5035976;28;20037;-61
2021/12/24 05:10:03;;;;;;;164.52;68.13;;;;;;;;;;5035463;28;20117;-62
2021/12/24 05:12:33;;;;;;;164.25;71.95;;;;;;;;;;5035729;28;20029;-61
2021/12/24 05:15:00;;;;;;;176.13;73.13;;;;;;;;;;5035730;28;20043;-62
2021/12/24 05:17:46;;;;;;;190.48;74.72;;;;;;;;;;5035995;28;20037;-64
2021/12/24 05:22:57;;;;;;;181.85;75.40;;;;;;;;;;5035400;28;20029;-62
2021/12/24 05:25:23;;;;;;;191.20;81.57;;;;;;;;;;5035921;28;20401;-62
2021/12/24 05:27:51;;;;;;;185.55;76.45;;;;;;;;;;5035355;28;20143;-63
2021/12/24 05:30:18;;;;;;;196.85;82.50;;;;;;;;;;5035011;28;20029;-62
2021/12/24 05:32:45;;;;;;;206.18;85.63;;;;;;;;;;5035587;28;20033;-62
2021/12/24 05:35:11;;;;;;;178.65;76.13;;;;;;;;;;5035631;28;20024;-62
2021/12/24 05:37:38;;;;;;;179.80;78.20;;;;;;;;;;5035403;28;20025;-62
2021/12/24 05:40:05;;;;;;;189.45;80.90;;;;;;;;;;5035195;28;20026;-62
2021/12/24 05:42:33;;;;;;;352.13;150.40;;;;;;;;;;5034788;28;20030;-63
2021/12/24 05:45:04;;;;;;;238.70;103.40;;;;;;;;;;5032073;28;20033;-62
2021/12/24 05:47:30;;;;;;;199.43;86.13;;;;;;;;;;5033238;28;20029;-61
2021/12/24 05:49:57;;;;;;;216.93;91.25;;;;;;;;;;5033826;28;20091;-62
2021/12/24 05:52:23;;;;;;;219.27;85.35;;;;;;;;;;5035256;28;20022;-62
2021/12/24 05:54:50;;;;;;;365.77;153.85;;;;;;;;;;5035408;28;20387;-63
2021/12/24 05:57:29;;;;;;;296.35;123.72;;;;;;;;;;5034289;28;20041;-63
2021/12/24 06:00:10;;;;;;;214.15;91.97;;;;;;;;;;5034039;28;20034;-63
2021/12/24 06:02:42;;;;;;;248.63;100.32;;;;;;;;;;5034400;28;20022;-63
2021/12/24 06:05:12;;;;;;;270.35;112.35;;;;;;;;;;5034379;28;20021;-61
2021/12/24 06:07:38;;;;;;;264.10;112.97;;;;;;;;;;5033783;28;20025;-61
2021/12/24 06:10:05;;;;;;;253.82;108.40;;;;;;;;;;5033651;28;20030;-61
2021/12/24 06:12:31;;;;;;;243.20;106.45;;;;;;;;;;5032990;28;20483;-62
2021/12/24 06:15:03;;;;;;;223.30;99.80;;;;;;;;;;5033939;28;20095;-61
2021/12/24 06:17:29;;;;;;;243.13;102.88;;;;;;;;;;5033973;28;20104;-61
2021/12/24 06:19:55;;;;;;;221.35;92.55;;;;;;;;;;5034493;28;20025;-62
2021/12/24 06:22:22;;;;;;;216.23;89.50;;;;;;;;;;5034717;28;20415;-61
2021/12/24 06:24:48;;;;;;;232.63;99.35;;;;;;;;;;5034844;28;20049;-63
2021/12/24 06:27:14;;;;;;;301.95;131.35;;;;;;;;;;5034091;28;20032;-61
2021/12/24 06:29:40;;;;;;;245.43;110.47;;;;;;;;;;5034540;28;20018;-61
2021/12/24 06:32:06;;;;;;;238.55;104.55;;;;;;;;;;5034090;28;20025;-61
2021/12/24 06:34:33;;;;;;;242.40;105.97;;;;;;;;;;5033274;28;20033;-62
2021/12/24 06:36:59;;;;;;;185.63;80.22;;;;;;;;;;5034171;28;20388;-63
2021/12/24 06:39:25;;;;;;;168.63;77.47;;;;;;;;;;5033872;28;20026;-62
2021/12/24 06:41:53;;;;;;;198.93;86.38;;;;;;;;;;5033172;28;20040;-60
2021/12/24 06:44:21;;;;;;;202.10;87.85;;;;;;;;;;5034262;28;20431;-63
2021/12/24 06:46:47;;;;;;;184.52;77.50;;;;;;;;;;5033760;28;20155;-62
2021/12/24 06:49:13;;;;;;;178.88;75.88;;;;;;;;;;5034030;28;20017;-61
2021/12/24 06:51:39;;;;;;;278.88;106.57;;;;;;;;;;5033967;28;20044;-62
2021/12/24 06:54:05;;;;;;;195.00;82.88;;;;;;;;;;5033421;28;20480;-62
2021/12/24 06:56:32;;;;;;;174.52;71.00;;;;;;;;;;5034173;28;20441;-61
2021/12/24 06:58:58;;;;;;;181.02;74.38;;;;;;;;;;5032999;28;20422;-62
2021/12/24 07:01:24;;;;;;;267.02;98.32;;;;;;;;;;5033565;28;20029;-62
2021/12/24 07:03:50;;;;;;;230.23;86.65;;;;;;;;;;5034023;28;20041;-62
2021/12/24 07:06:16;;;;;;;182.68;72.65;;;;;;;;;;5034431;28;20090;-63
2021/12/24 07:08:42;;;;;;;127.90;51.78;;;;;;;;;;5033689;28;20021;-62
2021/12/24 07:11:09;;;;;;;186.50;68.60;;;;;;;;;;5032606;28;20531;-64
2021/12/24 07:13:35;;;;;;;128.52;51.67;;;;;;;;;;5033830;28;20037;-62
2021/12/24 07:16:01;;;;;;;136.55;60.55;;;;;;;;;;5034065;28;20025;-63
2021/12/24 07:18:27;;;;;;;124.90;54.45;;;;;;;;;;5033618;28;20022;-63
2021/12/24 07:20:53;;;;;;;156.02;68.22;;;;;;;;;;5033311;28;20029;-64
2021/12/24 07:23:19;;;;;;;188.38;88.15;;;;;;;;;;5033189;28;20036;-64
2021/12/24 07:25:46;;;;;;;163.43;71.57;;;;;;;;;;5033376;28;20050;-64
2021/12/24 07:28:12;;;;;;;149.93;67.68;;;;;;;;;;5033229;28;20033;-64
2021/12/24 07:30:38;;;;;;;130.65;59.17;;;;;;;;;;5033655;28;20029;-62
2021/12/24 07:33:04;;;;;;;121.95;54.13;;;;;;;;;;5033696;28;20036;-63
2021/12/24 07:35:30;;;;;;;116.28;54.17;;;;;;;;;;5033019;28;20021;-64
2021/12/24 07:37:57;;;;;;;132.00;58.47;;;;;;;;;;5033595;28;20048;-64
2021/12/24 07:40:25;;;;;;;110.13;49.40;;;;;;;;;;5033624;28;20030;-64
2021/12/24 07:42:52;;;;;;;118.88;54.05;;;;;;;;;;5033310;28;20021;-63
2021/12/24 07:45:18;;;;;;;96.80;43.80;;;;;;;;;;5033525;28;20461;-63
2021/12/24 07:47:54;;;;;;;97.57;41.90;;;;;;;;;;5033268;28;20464;-64
2021/12/24 07:52:53;;;;;;;87.13;39.72;;;;;;;;;;5033414;28;20038;-62
2021/12/24 07:55:19;;;;;;;85.50;40.83;;;;;;;;;;5032992;28;20474;-62
2021/12/24 07:57:48;;;;;;;79.15;38.35;;;;;;;;;;5033084;28;20071;-62
2021/12/24 08:00:16;;;;;;;81.05;38.50;;;;;;;;;;5031756;28;20029;-63
2021/12/24 08:02:42;;;;;;;67.78;35.33;;;;;;;;;;5031808;28;20017;-62
2021/12/24 08:05:08;;;;;;;90.07;42.85;;;;;;;;;;5031460;28;20076;-64
2021/12/24 08:07:34;;;;;;;112.30;56.92;;;;;;;;;;5032185;28;20025;-63
2021/12/24 08:10:00;;;;;;;175.70;85.55;;;;;;;;;;5034025;28;20033;-64
2021/12/24 08:12:26;;;;;;;162.27;82.07;;;;;;;;;;5036168;28;20035;-63
2021/12/24 08:14:53;;;;;;;172.93;84.38;;;;;;;;;;5035691;28;20025;-62
2021/12/24 08:17:19;;;;;;;202.18;93.75;;;;;;;;;;5035801;28;20109;-64
2021/12/24 08:19:45;;;;;;;182.68;88.80;;;;;;;;;;5036944;28;20464;-62
2021/12/24 08:22:11;;;;;;;178.10;85.32;;;;;;;;;;5036823;28;20538;-66
2021/12/24 08:24:38;;;;;;;184.07;91.20;;;;;;;;;;5035877;28;20056;-62
2021/12/24 08:27:04;;;;;;;177.80;88.90;;;;;;;;;;5037002;28;20132;-63
2021/12/24 08:29:30;;;;;;;160.43;81.05;;;;;;;;;;5037192;28;20100;-63
2021/12/24 08:31:56;;;;;;;139.75;71.82;;;;;;;;;;5036613;28;20037;-64
2021/12/24 08:34:23;;;;;;;167.75;81.22;;;;;;;;;;5036200;28;20444;-66
2021/12/24 08:36:51;;;;;;;167.35;82.55;;;;;;;;;;5037160;28;20060;-64
2021/12/24 08:39:19;;;;;;;187.50;91.63;;;;;;;;;;5036577;28;20032;-63
2021/12/24 08:41:46;;;;;;;186.57;92.20;;;;;;;;;;5036127;28;20030;-65
2021/12/24 08:44:13;;;;;;;190.48;97.30;;;;;;;;;;5035734;28;20412;-66
2021/12/24 08:46:40;;;;;;;172.57;87.53;;;;;;;;;;5036151;28;20116;-65
2021/12/24 08:49:06;;;;;;;151.45;80.47;;;;;;;;;;5036690;28;20014;-65
2021/12/24 08:51:32;;;;;;;157.32;79.05;;;;;;;;;;5036249;28;20036;-65
2021/12/24 08:53:58;;;;;;;117.30;60.53;;;;;;;;;;5036031;28;20079;-63
2021/12/24 08:56:25;;;;;;;118.18;58.88;;;;;;;;;;5037024;28;20125;-67
2021/12/24 08:58:51;;;;;;;109.70;59.95;;;;;;;;;;5036403;28;20030;-65
2021/12/24 09:01:17;;;;;;;117.47;67.68;;;;;;;;;;5034446;28;20021;-63
2021/12/24 09:03:43;;;;;;;117.80;63.65;;;;;;;;;;5036040;28;20079;-66
2021/12/24 09:06:10;;;;;;;111.20;57.63;;;;;;;;;;5035672;28;20029;-61
2021/12/24 09:08:36;;;;;;;111.18;61.30;;;;;;;;;;5036009;28;20026;-63
2021/12/24 09:11:03;;;;;;;107.10;56.65;;;;;;;;;;5036001;28;20076;-65
2021/12/24 09:13:30;;;;;;;100.47;56.95;;;;;;;;;;5035775;28;20033;-65
2021/12/24 09:15:56;;;;;;;115.55;59.17;;;;;;;;;;5035786;28;20018;-63
2021/12/24 09:18:23;;;;;;;107.55;56.13;;;;;;;;;;5035716;28;20025;-63
2021/12/24 09:20:49;;;;;;;99.80;52.40;;;;;;;;;;5034871;28;20022;-64
2021/12/24 09:23:18;;;;;;;107.22;57.92;;;;;;;;;;5035750;28;20521;-64
2021/12/24 09:25:44;;;;;;;103.30;56.80;;;;;;;;;;5035986;28;20054;-63
2021/12/24 09:28:10;;;;;;;100.55;57.08;;;;;;;;;;5035535;28;20025;-62
2021/12/24 09:30:36;;;;;;;98.05;56.97;;;;;;;;;;5035908;28;20486;-62
2021/12/24 09:33:03;;;;;;;95.28;56.03;;;;;;;;;;5034505;28;20499;-65
2021/12/24 09:35:30;;;;;;;102.40;58.72;;;;;;;;;;5035245;28;20022;-63
2021/12/24 09:37:58;;;;;;;98.72;59.22;;;;;;;;;;5035671;28;20017;-63
2021/12/24 09:40:25;;;;;;;102.97;58.70;;;;;;;;;;5035692;28;20504;-62
2021/12/24 09:42:52;;;;;;;102.72;59.28;;;;;;;;;;5033144;28;20460;-65
2021/12/24 09:45:18;;;;;;;141.90;71.78;;;;;;;;;;5035866;28;20079;-65
2021/12/24 09:47:44;;;;;;;96.90;54.03;;;;;;;;;;5035848;28;20111;-65
2021/12/24 09:50:13;;;;;;;87.47;51.38;;;;;;;;;;5034747;28;20427;-64
2021/12/24 09:52:40;;;;;;;91.65;52.33;;;;;;;;;;5035232;28;20034;-64
2021/12/24 09:55:10;;;;;;;96.85;56.85;;;;;;;;;;5033233;28;20022;-64
2021/12/24 09:57:36;;;;;;;90.38;55.05;;;;;;;;;;5034199;28;20028;-63
2021/12/24 10:00:04;;;;;;;97.57;59.08;;;;;;;;;;5034852;28;20025;-64
2021/12/24 10:02:42;;;;;;;100.88;62.70;;;;;;;;;;5034840;28;20082;-63
2021/12/24 10:05:27;;;;;;;117.55;69.00;;;;;;;;;;5033999;28;20071;-64
2021/12/24 10:08:04;;;;;;;130.30;71.72;;;;;;;;;;5034702;28;20108;-65
2021/12/24 10:10:31;;;;;;;103.47;62.13;;;;;;;;;;5034776;28;20029;-64
2021/12/24 10:13:18;;;;;;;104.22;61.50;;;;;;;;;;5034750;28;20032;-64
2021/12/24 10:15:54;;;;;;;96.63;56.42;;;;;;;;;;5027759;28;20373;-65
2021/12/24 10:18:28;;;;;;;95.00;57.47;;;;;;;;;;5034781;28;20470;-63
2021/12/24 10:21:03;;;;;;;87.10;54.90;;;;;;;;;;5035292;28;20030;-64
2021/12/24 10:24:03;;;;;;;89.82;53.72;;;;;;;;;;5034499;28;20053;-65
2021/12/24 10:26:38;;;;;;;90.18;52.42;;;;;;;;;;5013970;28;20038;-64
2021/12/24 10:29:19;;;;;;;86.53;52.90;;;;;;;;;;5011547;28;20029;-65
2021/12/24 10:31:47;;;;;;;85.75;53.17;;;;;;;;;;5012738;28;20117;-65
2021/12/24 10:34:16;;;;;;;79.45;51.42;;;;;;;;;;5013748;28;20080;-65
2021/12/24 10:36:56;;;;;;;82.85;49.95;;;;;;;;;;5015122;28;20022;-65
2021/12/24 10:39:25;;;;;;;84.35;51.38;;;;;;;;;;5014111;28;20030;-67
2021/12/24 10:41:52;;;;;;;86.18;51.70;;;;;;;;;;5014413;28;20365;-65
2021/12/24 10:44:20;;;;;;;64.03;36.97;;;;;;;;;;5012837;28;20507;-67
2021/12/24 10:47:00;;;;;;;56.15;35.83;;;;;;;;;;5014416;28;20543;-64
2021/12/24 10:49:50;;;;;;;62.55;37.13;;;;;;;;;;5014600;28;20037;-66
2021/12/24 10:54:57;;;;;;;54.50;34.90;;;;;;;;;;5014623;28;20069;-65
2021/12/24 10:57:24;;;;;;;53.72;35.95;;;;;;;;;;5014260;28;20026;-65
2021/12/24 10:59:53;;;;;;;57.83;34.83;;;;;;;;;;5013927;28;20022;-64
2021/12/24 11:02:19;;;;;;;52.28;32.75;;;;;;;;;;5014451;28;20091;-66
2021/12/24 11:04:46;;;;;;;42.88;28.23;;;;;;;;;;5014136;28;20029;-64
2021/12/24 11:07:31;;;;;;;33.78;23.55;;;;;;;;;;5014086;28;20034;-65
2021/12/24 11:10:11;;;;;;;36.38;24.25;;;;;;;;;;5014068;28;20124;-63
2021/12/24 11:12:38;;;;;;;29.88;20.23;;;;;;;;;;5014242;28;20092;-63
2021/12/24 11:15:18;;;;;;;28.30;18.02;;;;;;;;;;5014160;28;20075;-65
2021/12/24 11:17:44;;;;;;;26.67;15.95;;;;;;;;;;5014480;28;20069;-64
2021/12/24 11:20:11;;;;;;;30.30;17.10;;;;;;;;;;5013808;28;20030;-65
2021/12/24 11:22:56;;;;;;;21.92;14.80;;;;;;;;;;5012573;28;20132;-62
2021/12/24 11:25:24;;;;;;;23.52;16.02;;;;;;;;;;5029612;28;20094;-63
2021/12/24 11:27:50;;;;;;;24.08;16.05;;;;;;;;;;5033140;28;20036;-63
2021/12/24 11:30:17;;;;;;;26.30;17.35;;;;;;;;;;5033945;28;20052;-65
2021/12/24 11:32:44;;;;;;;23.80;16.65;;;;;;;;;;5033433;28;20033;-66
2021/12/24 11:35:13;;;;;;;27.30;17.38;;;;;;;;;;5031935;28;20480;-65
2021/12/24 11:37:41;;;;;;;41.45;25.80;;;;;;;;;;5033016;28;20383;-65
2021/12/24 11:40:08;;;;;;;28.05;17.88;;;;;;;;;;5032309;28;20029;-64
2021/12/24 11:42:39;;;;;;;26.42;18.27;;;;;;;;;;5033390;28;20033;-64
2021/12/24 11:45:06;;;;;;;31.50;19.58;;;;;;;;;;5031641;28;20032;-68
2021/12/24 11:47:33;;;;;;;27.40;15.48;;;;;;;;;;5032072;28;20116;-64
2021/12/24 11:49:59;;;;;;;25.08;16.83;;;;;;;;;;5033683;28;20029;-65
2021/12/24 11:52:27;;;;;;;23.15;14.90;;;;;;;;;;5033250;28;20379;-65
2021/12/24 11:54:57;;;;;;;16.30;11.43;;;;;;;;;;5033259;28;20109;-63
2021/12/24 11:57:24;;;;;;;18.55;12.60;;;;;;;;;;5033249;28;20060;-64
2021/12/24 11:59:50;;;;;;;17.50;10.60;;;;;;;;;;5033206;28;20029;-63
2021/12/24 12:02:45;;;;;;;21.77;14.07;;;;;;;;;;5032952;28;20105;-64
2021/12/24 12:05:13;;;;;;;8.52;7.13;;;;;;;;;;5032163;28;20021;-66
2021/12/24 12:07:39;;;;;;;9.80;6.60;;;;;;;;;;5033375;28;20044;-65
2021/12/24 12:10:07;;;;;;;13.70;9.02;;;;;;;;;;5033278;28;20040;-63
2021/12/24 12:12:37;;;;;;;15.65;10.32;;;;;;;;;;5032304;28;20032;-64
2021/12/24 12:15:22;;;;;;;12.98;10.05;;;;;;;;;;5032391;28;20160;-64
2021/12/24 12:18:04;;;;;;;16.80;10.88;;;;;;;;;;5032971;28;20066;-65
2021/12/24 12:20:49;;;;;;;23.98;14.90;;;;;;;;;;5033279;28;20030;-65
2021/12/24 12:23:43;;;;;;;9.32;6.18;;;;;;;;;;5031646;28;20029;-65
2021/12/24 12:26:28;;;;;;;11.30;7.55;;;;;;;;;;5032838;28;20124;-66
2021/12/24 12:29:13;;;;;;;13.95;7.38;;;;;;;;;;5032213;28;20387;-65
2021/12/24 12:31:39;;;;;;;15.35;10.73;;;;;;;;;;5032724;28;20100;-65
2021/12/24 12:34:25;;;;;;;27.23;16.63;;;;;;;;;;5032853;28;20026;-64
2021/12/24 12:36:51;;;;;;;22.30;14.15;;;;;;;;;;5031198;28;20110;-65
2021/12/24 12:39:27;;;;;;;21.58;15.35;;;;;;;;;;5033071;28;20465;-64
2021/12/24 12:41:53;;;;;;;15.60;9.60;;;;;;;;;;5032552;28;20476;-63
2021/12/24 12:44:20;;;;;;;13.02;10.55;;;;;;;;;;5032250;28;20025;-63
2021/12/24 12:46:48;;;;;;;19.77;12.93;;;;;;;;;;5032911;28;20057;-63
2021/12/24 12:49:16;;;;;;;18.60;11.02;;;;;;;;;;5032735;28;20022;-63
2021/12/24 12:52:02;;;;;;;11.52;8.23;;;;;;;;;;5032001;28;20041;-65
2021/12/24 12:54:33;;;;;;;9.70;6.10;;;;;;;;;;5032714;28;20026;-64
2021/12/24 12:57:14;;;;;;;12.57;7.60;;;;;;;;;;5035536;28;20495;-65
2021/12/24 12:59:42;;;;;;;12.50;8.27;;;;;;;;;;5036981;28;20029;-62
2021/12/24 13:02:08;;;;;;;13.30;8.60;;;;;;;;;;5037021;28;20371;-63
2021/12/24 13:04:34;;;;;;;12.88;8.13;;;;;;;;;;5036035;28;20017;-64
2021/12/24 13:07:01;;;;;;;13.48;9.00;;;;;;;;;;5036318;28;20056;-65
2021/12/24 13:09:37;;;;;;;20.27;9.45;;;;;;;;;;5036017;28;20106;-64
2021/12/24 13:12:04;;;;;;;15.15;9.15;;;;;;;;;;5035637;28;20030;-64
2021/12/24 13:14:31;;;;;;;18.13;11.73;;;;;;;;;;5036371;28;20022;-67
2021/12/24 13:22:30;;;;;;;29.27;18.63;;;;;;;;;;5035778;28;20056;-63
2021/12/24 13:24:59;;;;;;;18.92;12.50;;;;;;;;;;5035987;28;20053;-64
2021/12/24 13:27:30;;;;;;;25.27;15.93;;;;;;;;;;5035708;28;20022;-65
2021/12/24 13:30:08;;;;;;;25.48;14.90;;;;;;;;;;5036232;28;20022;-64
2021/12/24 13:32:38;;;;;;;21.75;12.73;;;;;;;;;;5035463;28;20018;-63
2021/12/24 13:35:05;;;;;;;24.40;13.73;;;;;;;;;;5035426;28;20036;-64
2021/12/24 13:37:32;;;;;;;26.85;13.35;;;;;;;;;;5035525;28;20033;-63
2021/12/24 13:39:59;;;;;;;26.85;14.32;;;;;;;;;;5035003;28;20476;-64
2021/12/24 13:42:25;;;;;;;36.65;19.00;;;;;;;;;;5035768;28;20033;-64
2021/12/24 13:44:59;;;;;;;26.98;13.20;;;;;;;;;;5035407;28;20372;-63
2021/12/24 13:47:36;;;;;;;17.65;9.40;;;;;;;;;;5035273;28;20033;-63
2021/12/24 13:50:27;;;;;;;8.18;5.00;;;;;;;;;;5036129;28;20029;-63
2021/12/24 13:55:40;;;;;;;6.78;3.88;;;;;;;;;;5035520;28;20052;-62
2021/12/24 13:58:08;;;;;;;8.02;4.32;;;;;;;;;;5035063;28;20106;-64
2021/12/24 14:00:36;;;;;;;8.45;4.60;;;;;;;;;;5034983;28;20090;-64
2021/12/24 14:03:07;;;;;;;10.80;4.55;;;;;;;;;;5035270;28;20025;-64
2021/12/24 14:05:43;;;;;;;9.88;5.05;;;;;;;;;;5035391;28;20048;-62
2021/12/24 14:08:11;;;;;;;12.25;5.93;;;;;;;;;;5033878;28;20191;-66
2021/12/24 14:10:38;;;;;;;14.55;6.28;;;;;;;;;;5035134;28;20025;-63
2021/12/24 14:13:09;;;;;;;8.95;4.72;;;;;;;;;;5033362;28;20108;-64
2021/12/24 14:15:48;;;;;;;11.40;5.80;;;;;;;;;;5034525;28;20109;-64
2021/12/24 14:23:30;;;;;;;16.42;6.30;;;;;;;;;;5034544;28;20034;-64
2021/12/24 14:25:57;;;;;;;12.02;4.97;;;;;;;;;;5034928;28;20045;-64
2021/12/24 14:28:24;;;;;;;12.82;6.97;;;;;;;;;;5034438;28;20025;-65
2021/12/24 14:30:58;;;;;;;18.42;6.93;;;;;;;;;;5034781;28;20037;-64
2021/12/24 14:33:24;;;;;;;13.43;6.47;;;;;;;;;;5035460;28;20026;-64
2021/12/24 14:35:52;;;;;;;12.45;6.50;;;;;;;;;;5034231;28;20022;-63
2021/12/24 14:38:18;;;;;;;16.33;8.68;;;;;;;;;;5034542;28;20368;-65
2021/12/24 14:40:55;;;;;;;14.77;8.80;;;;;;;;;;5032796;28;20423;-63
2021/12/24 14:43:21;;;;;;;19.95;10.68;;;;;;;;;;5034480;28;20112;-65
2021/12/24 14:45:48;;;;;;;20.05;9.32;;;;;;;;;;5034342;28;20476;-65
2021/12/24 14:48:24;;;;;;;24.42;11.70;;;;;;;;;;5034074;28;20022;-66
2021/12/24 14:50:59;;;;;;;27.60;11.02;;;;;;;;;;5033208;28;20041;-64
2021/12/24 14:53:25;;;;;;;25.20;11.10;;;;;;;;;;5033561;28;20021;-63
2021/12/24 14:55:55;;;;;;;32.63;12.90;;;;;;;;;;5033866;28;20025;-65
2021/12/24 14:58:27;;;;;;;38.80;15.63;;;;;;;;;;5033263;28;20021;-65
2021/12/24 15:00:54;;;;;;;33.10;16.45;;;;;;;;;;5032535;28;20499;-64
2021/12/24 15:03:21;;;;;;;36.00;15.23;;;;;;;;;;5032270;28;20075;-64
2021/12/24 15:05:48;;;;;;;33.75;15.85;;;;;;;;;;5033757;28;20021;-65
2021/12/24 15:08:17;;;;;;;87.50;34.83;;;;;;;;;;5034305;28;20151;-65
2021/12/24 15:10:56;;;;;;;35.33;17.60;;;;;;;;;;5033790;28;20032;-66
2021/12/24 15:13:24;;;;;;;42.28;18.67;;;;;;;;;;5034089;28;20022;-64
2021/12/24 15:15:51;;;;;;;130.70;56.03;;;;;;;;;;5033937;28;20112;-65
2021/12/24 15:18:17;;;;;;;42.03;19.52;;;;;;;;;;5033853;28;20065;-63
2021/12/24 15:20:44;;;;;;;53.92;21.63;;;;;;;;;;5033926;28;20093;-64
2021/12/24 15:23:10;;;;;;;54.55;22.08;;;;;;;;;;5033729;28;20033;-64
2021/12/24 15:25:37;;;;;;;41.85;19.45;;;;;;;;;;5033607;28;20549;-64
2021/12/24 15:28:09;;;;;;;37.45;18.10;;;;;;;;;;5033767;28;20032;-66
2021/12/24 15:30:36;;;;;;;49.42;22.52;;;;;;;;;;5033875;28;20136;-63
2021/12/24 15:33:03;;;;;;;42.92;20.70;;;;;;;;;;5033079;28;20021;-63
2021/12/24 15:35:29;;;;;;;45.15;19.65;;;;;;;;;;5032408;28;20418;-65
2021/12/24 15:37:55;;;;;;;31.25;16.10;;;;;;;;;;5033322;28;20468;-64
2021/12/24 15:40:21;;;;;;;60.90;29.63;;;;;;;;;;5033505;28;20071;-63
2021/12/24 15:42:49;;;;;;;98.78;47.17;;;;;;;;;;5033326;28;20029;-64
2021/12/24 15:45:15;;;;;;;82.95;39.70;;;;;;;;;;5033812;28;20049;-66
2021/12/24 15:47:41;;;;;;;94.20;44.25;;;;;;;;;;5033776;28;20366;-64
2021/12/24 15:50:08;;;;;;;364.92;153.98;;;;;;;;;;5033210;28;20554;-66
2021/12/24 15:52:34;;;;;;;174.25;75.90;;;;;;;;;;5032983;28;20022;-65
2021/12/24 15:55:00;;;;;;;126.95;56.92;;;;;;;;;;5033486;28;20029;-64
2021/12/24 15:57:26;;;;;;;120.18;54.78;;;;;;;;;;5033686;28;20064;-64
2021/12/24 15:59:52;;;;;;;142.60;65.95;;;;;;;;;;5033154;28;20021;-65
2021/12/24 16:02:18;;;;;;;118.60;54.58;;;;;;;;;;5033096;28;20476;-64
2021/12/24 16:04:44;;;;;;;132.68;64.97;;;;;;;;;;5033149;28;20021;-65
2021/12/24 16:07:11;;;;;;;147.27;70.90;;;;;;;;;;5031741;28;20048;-63
2021/12/24 16:09:37;;;;;;;130.90;63.97;;;;;;;;;;5031945;28;20049;-65
2021/12/24 16:12:04;;;;;;;139.82;66.20;;;;;;;;;;5033487;28;20100;-64
2021/12/24 16:14:30;;;;;;;125.10;61.00;;;;;;;;;;5032954;28;20542;-65